Knife River, Minnesota
Current Conditions -  °F | °C
As of 2:14 PM on Sunday 25 Jan 2015 (Local Time) from KTWM Reporting Station
Light Snow Light Snow  
Wind Chill: 13°   Ceiling: 1700
Heat Index: 21°   Visibility: 4mi
Dew Point: 16°   Wind: 7mph
Humidity: 80%   Direction: 70°ENE
Pressure: 30.04"   Gusts: NA
Location:  46.95°N, 91.78°W
Report Text: KTWM 252014Z AUTO 07006KT 4SM -SN OVC017 M06/M09 A3004 RMK AO2
Loading
Personal Weather Stations






























Interactive Weather Map New forecast layout! Learn more

10-Day Weather Forecast

Advertisements
Track Severe Weather on mobile